sensor_id;sensor_type;location;lat;lon;timestamp;temperature;humidity
74923;HTU21D;64715;44.760;37.678;2023-02-20T00:00:41;6.97;88.33
74923;HTU21D;64715;44.760;37.678;2023-02-20T00:01:51;6.98;88.37
74923;HTU21D;64715;44.760;37.678;2023-02-20T00:02:53;6.97;88.34
74923;HTU21D;64715;44.760;37.678;2023-02-20T00:03:54;6.98;88.23
74923;HTU21D;64715;44.760;37.678;2023-02-20T00:04:55;6.96;88.18
74923;HTU21D;64715;44.760;37.678;2023-02-20T00:05:56;6.97;88.22
74923;HTU21D;64715;44.760;37.678;2023-02-20T00:06:57;6.97;88.31
74923;HTU21D;64715;44.760;37.678;2023-02-20T00:07:58;6.97;88.28
74923;HTU21D;64715;44.760;37.678;2023-02-20T00:08:59;6.97;88.44
74923;HTU21D;64715;44.760;37.678;2023-02-20T00:10:00;6.98;88.70
74923;HTU21D;64715;44.760;37.678;2023-02-20T00:11:02;6.99;88.44
74923;HTU21D;64715;44.760;37.678;2023-02-20T00:12:03;6.99;88.50
74923;HTU21D;64715;44.760;37.678;2023-02-20T00:13:04;6.99;88.39
74923;HTU21D;64715;44.760;37.678;2023-02-20T00:14:05;7.00;88.26
74923;HTU21D;64715;44.760;37.678;2023-02-20T00:15:07;7.00;88.59
74923;HTU21D;64715;44.760;37.678;2023-02-20T00:16:08;7.00;88.64
74923;HTU21D;64715;44.760;37.678;2023-02-20T00:17:09;7.01;88.54
74923;HTU21D;64715;44.760;37.678;2023-02-20T00:18:10;7.01;88.67
74923;HTU21D;64715;44.760;37.678;2023-02-20T00:19:11;7.02;88.77
74923;HTU21D;64715;44.760;37.678;2023-02-20T00:20:19;7.00;88.69
74923;HTU21D;64715;44.760;37.678;2023-02-20T00:21:20;7.00;88.65
74923;HTU21D;64715;44.760;37.678;2023-02-20T00:22:22;7.01;88.57
74923;HTU21D;64715;44.760;37.678;2023-02-20T00:23:23;7.01;88.68
74923;HTU21D;64715;44.760;37.678;2023-02-20T00:24:24;7.01;88.62
74923;HTU21D;64715;44.760;37.678;2023-02-20T00:25:25;7.00;88.54
74923;HTU21D;64715;44.760;37.678;2023-02-20T00:26:26;7.00;88.47
74923;HTU21D;64715;44.760;37.678;2023-02-20T00:27:27;7.00;88.49
74923;HTU21D;64715;44.760;37.678;2023-02-20T00:28:28;6.99;88.70
74923;HTU21D;64715;44.760;37.678;2023-02-20T00:29:29;7.00;88.69
74923;HTU21D;64715;44.760;37.678;2023-02-20T00:30:30;7.00;88.51
74923;HTU21D;64715;44.760;37.678;2023-02-20T00:31:31;7.00;88.63
74923;HTU21D;64715;44.760;37.678;2023-02-20T00:32:35;7.01;88.57
74923;HTU21D;64715;44.760;37.678;2023-02-20T00:33:36;7.00;88.44
74923;HTU21D;64715;44.760;37.678;2023-02-20T00:34:37;6.99;88.41
74923;HTU21D;64715;44.760;37.678;2023-02-20T00:35:40;6.99;88.60
74923;HTU21D;64715;44.760;37.678;2023-02-20T00:36:41;6.99;88.70
74923;HTU21D;64715;44.760;37.678;2023-02-20T00:37:43;6.98;88.70
74923;HTU21D;64715;44.760;37.678;2023-02-20T00:38:45;6.98;88.73
74923;HTU21D;64715;44.760;37.678;2023-02-20T00:39:46;6.97;88.36
74923;HTU21D;64715;44.760;37.678;2023-02-20T00:40:48;6.96;88.25
74923;HTU21D;64715;44.760;37.678;2023-02-20T00:41:49;6.97;88.68
74923;HTU21D;64715;44.760;37.678;2023-02-20T00:42:51;6.96;88.61
74923;HTU21D;64715;44.760;37.678;2023-02-20T00:43:52;6.95;88.50
74923;HTU21D;64715;44.760;37.678;2023-02-20T00:44:53;6.95;88.74
74923;HTU21D;64715;44.760;37.678;2023-02-20T00:45:54;6.95;88.79
74923;HTU21D;64715;44.760;37.678;2023-02-20T00:46:56;6.95;88.75
74923;HTU21D;64715;44.760;37.678;2023-02-20T00:47:57;6.94;88.60
74923;HTU21D;64715;44.760;37.678;2023-02-20T00:48:58;6.94;88.58
74923;HTU21D;64715;44.760;37.678;2023-02-20T00:50:18;6.94;88.89
74923;HTU21D;64715;44.760;37.678;2023-02-20T00:51:19;6.95;88.86
74923;HTU21D;64715;44.760;37.678;2023-02-20T00:52:20;6.94;88.78
74923;HTU21D;64715;44.760;37.678;2023-02-20T00:53:21;6.96;89.02
74923;HTU21D;64715;44.760;37.678;2023-02-20T00:54:22;6.96;88.93
74923;HTU21D;64715;44.760;37.678;2023-02-20T00:55:23;6.98;89.25
74923;HTU21D;64715;44.760;37.678;2023-02-20T00:56:24;6.98;89.31
74923;HTU21D;64715;44.760;37.678;2023-02-20T00:57:25;6.99;89.37
74923;HTU21D;64715;44.760;37.678;2023-02-20T00:58:28;6.98;89.31
74923;HTU21D;64715;44.760;37.678;2023-02-20T00:59:30;7.01;89.28
74923;HTU21D;64715;44.760;37.678;2023-02-20T01:00:30;6.99;89.53
74923;HTU21D;64715;44.760;37.678;2023-02-20T01:01:32;7.00;89.30
74923;HTU21D;64715;44.760;37.678;2023-02-20T01:02:33;7.01;89.56
74923;HTU21D;64715;44.760;37.678;2023-02-20T01:03:34;7.03;89.57
74923;HTU21D;64715;44.760;37.678;2023-02-20T01:04:35;7.03;89.50
74923;HTU21D;64715;44.760;37.678;2023-02-20T01:05:36;7.04;89.60
74923;HTU21D;64715;44.760;37.678;2023-02-20T01:06:38;7.05;89.66
74923;HTU21D;64715;44.760;37.678;2023-02-20T01:07:39;7.08;89.73
74923;HTU21D;64715;44.760;37.678;2023-02-20T01:08:41;7.09;89.89
74923;HTU21D;64715;44.760;37.678;2023-02-20T01:09:42;7.10;89.95
74923;HTU21D;64715;44.760;37.678;2023-02-20T01:10:43;7.10;89.90
74923;HTU21D;64715;44.760;37.678;2023-02-20T01:11:45;7.12;90.05
74923;HTU21D;64715;44.760;37.678;2023-02-20T01:12:46;7.12;90.27
74923;HTU21D;64715;44.760;37.678;2023-02-20T01:13:47;7.12;90.12
74923;HTU21D;64715;44.760;37.678;2023-02-20T01:14:48;7.15;90.22
74923;HTU21D;64715;44.760;37.678;2023-02-20T01:15:49;7.16;90.08
74923;HTU21D;64715;44.760;37.678;2023-02-20T01:16:52;7.17;90.34
74923;HTU21D;64715;44.760;37.678;2023-02-20T01:17:53;7.16;90.18
74923;HTU21D;64715;44.760;37.678;2023-02-20T01:18:54;7.19;90.19
74923;HTU21D;64715;44.760;37.678;2023-02-20T01:19:55;7.22;90.13
74923;HTU21D;64715;44.760;37.678;2023-02-20T01:20:56;7.23;90.52
74923;HTU21D;64715;44.760;37.678;2023-02-20T01:21:57;7.25;90.32
74923;HTU21D;64715;44.760;37.678;2023-02-20T01:23:00;7.25;90.35
74923;HTU21D;64715;44.760;37.678;2023-02-20T01:24:01;7.27;90.47
74923;HTU21D;64715;44.760;37.678;2023-02-20T01:25:02;7.27;90.57
74923;HTU21D;64715;44.760;37.678;2023-02-20T01:26:03;7.30;90.73
74923;HTU21D;64715;44.760;37.678;2023-02-20T01:27:04;7.32;90.44
74923;HTU21D;64715;44.760;37.678;2023-02-20T01:28:05;7.34;90.57
74923;HTU21D;64715;44.760;37.678;2023-02-20T01:29:06;7.37;90.85
74923;HTU21D;64715;44.760;37.678;2023-02-20T01:30:09;7.37;90.69
74923;HTU21D;64715;44.760;37.678;2023-02-20T01:31:10;7.40;90.60
74923;HTU21D;64715;44.760;37.678;2023-02-20T01:32:12;7.42;90.79
74923;HTU21D;64715;44.760;37.678;2023-02-20T01:33:13;7.45;90.86
74923;HTU21D;64715;44.760;37.678;2023-02-20T01:34:14;7.46;90.90
74923;HTU21D;64715;44.760;37.678;2023-02-20T01:35:16;7.48;91.15
74923;HTU21D;64715;44.760;37.678;2023-02-20T01:36:17;7.50;90.89
74923;HTU21D;64715;44.760;37.678;2023-02-20T01:37:18;7.52;91.09
74923;HTU21D;64715;44.760;37.678;2023-02-20T01:38:20;7.53;90.97
74923;HTU21D;64715;44.760;37.678;2023-02-20T01:39:24;7.56;90.77
74923;HTU21D;64715;44.760;37.678;2023-02-20T01:40:27;7.58;91.08
74923;HTU21D;64715;44.760;37.678;2023-02-20T01:41:28;7.59;90.95
74923;HTU21D;64715;44.760;37.678;2023-02-20T01:42:31;7.62;91.15
74923;HTU21D;64715;44.760;37.678;2023-02-20T01:43:33;7.64;91.16
74923;HTU21D;64715;44.760;37.678;2023-02-20T01:44:36;7.65;91.05
74923;HTU21D;64715;44.760;37.678;2023-02-20T01:45:39;7.67;91.12
74923;HTU21D;64715;44.760;37.678;2023-02-20T01:46:46;7.70;91.22
74923;HTU21D;64715;44.760;37.678;2023-02-20T01:47:50;7.72;91.09
74923;HTU21D;64715;44.760;37.678;2023-02-20T01:48:54;7.72;91.08
74923;HTU21D;64715;44.760;37.678;2023-02-20T01:49:59;7.72;91.30
74923;HTU21D;64715;44.760;37.678;2023-02-20T01:51:03;7.73;90.96
74923;HTU21D;64715;44.760;37.678;2023-02-20T01:52:14;7.76;91.14
74923;HTU21D;64715;44.760;37.678;2023-02-20T01:53:19;7.77;91.18
74923;HTU21D;64715;44.760;37.678;2023-02-20T01:54:22;7.77;91.17
74923;HTU21D;64715;44.760;37.678;2023-02-20T01:55:30;7.81;90.95
74923;HTU21D;64715;44.760;37.678;2023-02-20T01:56:32;7.81;90.98
74923;HTU21D;64715;44.760;37.678;2023-02-20T01:57:37;7.85;91.30
74923;HTU21D;64715;44.760;37.678;2023-02-20T01:58:42;7.86;91.01
74923;HTU21D;64715;44.760;37.678;2023-02-20T01:59:45;7.85;91.08
74923;HTU21D;64715;44.760;37.678;2023-02-20T02:00:47;7.86;91.15
74923;HTU21D;64715;44.760;37.678;2023-02-20T02:01:49;7.87;90.95
74923;HTU21D;64715;44.760;37.678;2023-02-20T02:02:58;7.88;91.31
74923;HTU21D;64715;44.760;37.678;2023-02-20T02:04:03;7.88;91.27
74923;HTU21D;64715;44.760;37.678;2023-02-20T02:05:09;7.89;91.30
74923;HTU21D;64715;44.760;37.678;2023-02-20T02:06:12;7.89;91.23
74923;HTU21D;64715;44.760;37.678;2023-02-20T02:07:14;7.92;91.37
74923;HTU21D;64715;44.760;37.678;2023-02-20T02:08:18;7.92;90.96
74923;HTU21D;64715;44.760;37.678;2023-02-20T02:09:48;7.92;90.92
74923;HTU21D;64715;44.760;37.678;2023-02-20T02:11:54;7.93;91.01
74923;HTU21D;64715;44.760;37.678;2023-02-20T02:12:55;7.93;90.82
74923;HTU21D;64715;44.760;37.678;2023-02-20T02:13:56;7.91;90.83
74923;HTU21D;64715;44.760;37.678;2023-02-20T02:14:58;7.91;90.82
74923;HTU21D;64715;44.760;37.678;2023-02-20T02:27:47;7.77;90.36
74923;HTU21D;64715;44.760;37.678;2023-02-20T02:29:03;7.77;90.52
74923;HTU21D;64715;44.760;37.678;2023-02-20T02:30:44;7.73;90.69
74923;HTU21D;64715;44.760;37.678;2023-02-20T02:41:41;7.67;90.89
74923;HTU21D;64715;44.760;37.678;2023-02-20T02:43:00;7.70;90.91
74923;HTU21D;64715;44.760;37.678;2023-02-20T02:44:09;7.68;90.77
74923;HTU21D;64715;44.760;37.678;2023-02-20T02:45:34;7.73;90.98
74923;HTU21D;64715;44.760;37.678;2023-02-20T02:46:41;7.73;91.07
74923;HTU21D;64715;44.760;37.678;2023-02-20T02:47:58;7.75;91.23
74923;HTU21D;64715;44.760;37.678;2023-02-20T02:49:10;7.76;91.34
74923;HTU21D;64715;44.760;37.678;2023-02-20T02:50:19;7.77;91.08
74923;HTU21D;64715;44.760;37.678;2023-02-20T02:51:25;7.79;91.27
74923;HTU21D;64715;44.760;37.678;2023-02-20T02:52:28;7.81;91.31
74923;HTU21D;64715;44.760;37.678;2023-02-20T02:54:07;7.83;91.27
74923;HTU21D;64715;44.760;37.678;2023-02-20T02:55:09;7.83;91.08
74923;HTU21D;64715;44.760;37.678;2023-02-20T02:56:10;7.86;91.06
74923;HTU21D;64715;44.760;37.678;2023-02-20T02:57:25;7.88;91.44
74923;HTU21D;64715;44.760;37.678;2023-02-20T02:58:26;7.91;91.44
74923;HTU21D;64715;44.760;37.678;2023-02-20T02:59:31;7.92;91.21
74923;HTU21D;64715;44.760;37.678;2023-02-20T03:00:39;7.96;91.31
74923;HTU21D;64715;44.760;37.678;2023-02-20T03:01:47;7.97;91.52
74923;HTU21D;64715;44.760;37.678;2023-02-20T03:02:52;7.98;91.49
74923;HTU21D;64715;44.760;37.678;2023-02-20T03:03:58;8.00;91.68
74923;HTU21D;64715;44.760;37.678;2023-02-20T03:05:03;8.01;91.51
74923;HTU21D;64715;44.760;37.678;2023-02-20T03:06:21;8.03;91.53
74923;HTU21D;64715;44.760;37.678;2023-02-20T03:07:25;8.03;91.28
74923;HTU21D;64715;44.760;37.678;2023-02-20T03:08:59;8.04;91.36
74923;HTU21D;64715;44.760;37.678;2023-02-20T03:10:06;8.07;91.21
74923;HTU21D;64715;44.760;37.678;2023-02-20T03:12:17;8.08;91.02
74923;HTU21D;64715;44.760;37.678;2023-02-20T03:13:22;8.09;91.20
74923;HTU21D;64715;44.760;37.678;2023-02-20T03:14:49;8.09;90.92
74923;HTU21D;64715;44.760;37.678;2023-02-20T03:16:10;8.11;91.01
74923;HTU21D;64715;44.760;37.678;2023-02-20T03:18:36;8.09;91.04
74923;HTU21D;64715;44.760;37.678;2023-02-20T03:20:47;8.11;90.88
74923;HTU21D;64715;44.760;37.678;2023-02-20T03:21:49;8.12;90.76
74923;HTU21D;64715;44.760;37.678;2023-02-20T03:22:55;8.12;90.92
74923;HTU21D;64715;44.760;37.678;2023-02-20T03:24:00;8.14;90.47
74923;HTU21D;64715;44.760;37.678;2023-02-20T03:26:14;8.16;90.50
74923;HTU21D;64715;44.760;37.678;2023-02-20T03:27:51;8.15;90.75
74923;HTU21D;64715;44.760;37.678;2023-02-20T03:29:10;8.15;90.73
74923;HTU21D;64715;44.760;37.678;2023-02-20T03:30:41;8.15;90.69
74923;HTU21D;64715;44.760;37.678;2023-02-20T03:31:44;8.14;90.79
74923;HTU21D;64715;44.760;37.678;2023-02-20T03:32:50;8.14;90.81
74923;HTU21D;64715;44.760;37.678;2023-02-20T03:34:25;8.13;90.74
74923;HTU21D;64715;44.760;37.678;2023-02-20T03:35:47;8.13;90.76
74923;HTU21D;64715;44.760;37.678;2023-02-20T03:37:15;8.11;90.46
74923;HTU21D;64715;44.760;37.678;2023-02-20T03:38:40;8.11;90.85
74923;HTU21D;64715;44.760;37.678;2023-02-20T03:40:05;8.11;90.87
74923;HTU21D;64715;44.760;37.678;2023-02-20T03:41:28;8.07;90.62
74923;HTU21D;64715;44.760;37.678;2023-02-20T03:42:53;8.07;90.48
74923;HTU21D;64715;44.760;37.678;2023-02-20T03:44:17;8.08;90.95
74923;HTU21D;64715;44.760;37.678;2023-02-20T03:45:22;8.09;90.54
74923;HTU21D;64715;44.760;37.678;2023-02-20T03:46:26;8.07;90.58
74923;HTU21D;64715;44.760;37.678;2023-02-20T03:47:33;8.09;90.89
74923;HTU21D;64715;44.760;37.678;2023-02-20T03:48:49;8.08;90.73
74923;HTU21D;64715;44.760;37.678;2023-02-20T03:49:53;8.12;90.61
74923;HTU21D;64715;44.760;37.678;2023-02-20T03:51:15;8.11;90.49
74923;HTU21D;64715;44.760;37.678;2023-02-20T03:52:31;8.13;90.66
74923;HTU21D;64715;44.760;37.678;2023-02-20T03:53:32;8.12;90.46
74923;HTU21D;64715;44.760;37.678;2023-02-20T03:54:34;8.14;90.60
74923;HTU21D;64715;44.760;37.678;2023-02-20T03:55:35;8.16;90.70
74923;HTU21D;64715;44.760;37.678;2023-02-20T03:56:45;8.17;90.44
74923;HTU21D;64715;44.760;37.678;2023-02-20T03:57:56;8.16;90.48
74923;HTU21D;64715;44.760;37.678;2023-02-20T03:59:22;8.16;90.51
74923;HTU21D;64715;44.760;37.678;2023-02-20T04:00:35;8.17;90.47
74923;HTU21D;64715;44.760;37.678;2023-02-20T04:01:38;8.17;90.57
74923;HTU21D;64715;44.760;37.678;2023-02-20T04:02:43;8.17;90.63
74923;HTU21D;64715;44.760;37.678;2023-02-20T04:03:47;8.18;90.56
74923;HTU21D;64715;44.760;37.678;2023-02-20T04:04:52;8.18;90.30
74923;HTU21D;64715;44.760;37.678;2023-02-20T04:05:56;8.17;90.56
74923;HTU21D;64715;44.760;37.678;2023-02-20T04:07:11;8.19;90.34
74923;HTU21D;64715;44.760;37.678;2023-02-20T04:08:28;8.18;90.58
74923;HTU21D;64715;44.760;37.678;2023-02-20T04:09:38;8.18;90.17
74923;HTU21D;64715;44.760;37.678;2023-02-20T04:10:52;8.19;90.44
74923;HTU21D;64715;44.760;37.678;2023-02-20T04:12:18;8.16;90.46
74923;HTU21D;64715;44.760;37.678;2023-02-20T04:13:22;8.18;90.33
74923;HTU21D;64715;44.760;37.678;2023-02-20T04:14:25;8.17;90.33
74923;HTU21D;64715;44.760;37.678;2023-02-20T04:15:30;8.19;90.26
74923;HTU21D;64715;44.760;37.678;2023-02-20T04:16:40;8.20;90.43
74923;HTU21D;64715;44.760;37.678;2023-02-20T04:18:14;8.20;90.60
74923;HTU21D;64715;44.760;37.678;2023-02-20T04:19:18;8.18;90.31
74923;HTU21D;64715;44.760;37.678;2023-02-20T04:20:21;8.19;90.41
74923;HTU21D;64715;44.760;37.678;2023-02-20T04:21:35;8.19;90.38
74923;HTU21D;64715;44.760;37.678;2023-02-20T04:22:42;8.19;90.50
74923;HTU21D;64715;44.760;37.678;2023-02-20T04:23:46;8.21;90.60
74923;HTU21D;64715;44.760;37.678;2023-02-20T04:25:11;8.20;90.55
74923;HTU21D;64715;44.760;37.678;2023-02-20T04:26:20;8.20;90.26
74923;HTU21D;64715;44.760;37.678;2023-02-20T04:27:22;8.19;90.31
74923;HTU21D;64715;44.760;37.678;2023-02-20T04:28:28;8.18;90.23
74923;HTU21D;64715;44.760;37.678;2023-02-20T04:29:33;8.20;90.40
74923;HTU21D;64715;44.760;37.678;2023-02-20T04:30:35;8.20;90.41
74923;HTU21D;64715;44.760;37.678;2023-02-20T04:31:36;8.20;90.12
74923;HTU21D;64715;44.760;37.678;2023-02-20T04:32:37;8.21;90.32
74923;HTU21D;64715;44.760;37.678;2023-02-20T04:33:38;8.21;90.35
74923;HTU21D;64715;44.760;37.678;2023-02-20T04:34:46;8.22;90.31
74923;HTU21D;64715;44.760;37.678;2023-02-20T04:35:48;8.22;90.05
74923;HTU21D;64715;44.760;37.678;2023-02-20T04:36:51;8.23;90.44
74923;HTU21D;64715;44.760;37.678;2023-02-20T04:37:57;8.24;90.27
74923;HTU21D;64715;44.760;37.678;2023-02-20T04:38:58;8.27;90.28
74923;HTU21D;64715;44.760;37.678;2023-02-20T04:40:04;8.26;90.39
74923;HTU21D;64715;44.760;37.678;2023-02-20T04:41:05;8.28;90.41
74923;HTU21D;64715;44.760;37.678;2023-02-20T04:42:07;8.28;90.25
74923;HTU21D;64715;44.760;37.678;2023-02-20T04:43:08;8.30;90.31
74923;HTU21D;64715;44.760;37.678;2023-02-20T04:44:09;8.30;90.18
74923;HTU21D;64715;44.760;37.678;2023-02-20T04:45:30;8.33;90.39
74923;HTU21D;64715;44.760;37.678;2023-02-20T04:46:31;8.32;90.45
74923;HTU21D;64715;44.760;37.678;2023-02-20T04:47:32;8.32;90.49
74923;HTU21D;64715;44.760;37.678;2023-02-20T04:48:33;8.34;90.38
74923;HTU21D;64715;44.760;37.678;2023-02-20T04:49:35;8.34;90.04
74923;HTU21D;64715;44.760;37.678;2023-02-20T04:50:39;8.37;90.44
74923;HTU21D;64715;44.760;37.678;2023-02-20T04:51:41;8.36;90.44
74923;HTU21D;64715;44.760;37.678;2023-02-20T04:52:42;8.37;90.41
74923;HTU21D;64715;44.760;37.678;2023-02-20T04:53:43;8.38;90.42
74923;HTU21D;64715;44.760;37.678;2023-02-20T04:54:44;8.41;90.65
74923;HTU21D;64715;44.760;37.678;2023-02-20T04:55:47;8.43;90.59
74923;HTU21D;64715;44.760;37.678;2023-02-20T04:56:52;8.44;90.28
74923;HTU21D;64715;44.760;37.678;2023-02-20T04:57:54;8.43;90.53
74923;HTU21D;64715;44.760;37.678;2023-02-20T04:58:58;8.45;90.29
74923;HTU21D;64715;44.760;37.678;2023-02-20T04:59:59;8.46;90.41
74923;HTU21D;64715;44.760;37.678;2023-02-20T05:01:00;8.47;90.19
74923;HTU21D;64715;44.760;37.678;2023-02-20T05:02:00;8.47;90.35
74923;HTU21D;64715;44.760;37.678;2023-02-20T05:03:02;8.49;90.46
74923;HTU21D;64715;44.760;37.678;2023-02-20T05:04:03;8.50;90.41
74923;HTU21D;64715;44.760;37.678;2023-02-20T05:05:05;8.50;90.30
74923;HTU21D;64715;44.760;37.678;2023-02-20T05:06:07;8.50;90.25
74923;HTU21D;64715;44.760;37.678;2023-02-20T05:07:08;8.51;90.31
74923;HTU21D;64715;44.760;37.678;2023-02-20T05:08:10;8.52;90.26
74923;HTU21D;64715;44.760;37.678;2023-02-20T05:09:11;8.52;90.57
74923;HTU21D;64715;44.760;37.678;2023-02-20T05:10:19;8.53;90.16
74923;HTU21D;64715;44.760;37.678;2023-02-20T05:11:20;8.55;90.27
74923;HTU21D;64715;44.760;37.678;2023-02-20T05:12:21;8.56;90.17
74923;HTU21D;64715;44.760;37.678;2023-02-20T05:13:22;8.57;90.41
74923;HTU21D;64715;44.760;37.678;2023-02-20T05:14:23;8.56;90.18
74923;HTU21D;64715;44.760;37.678;2023-02-20T05:15:25;8.60;90.15
74923;HTU21D;64715;44.760;37.678;2023-02-20T05:16:26;8.58;90.27
74923;HTU21D;64715;44.760;37.678;2023-02-20T05:17:27;8.58;89.98
74923;HTU21D;64715;44.760;37.678;2023-02-20T05:18:29;8.60;90.34
74923;HTU21D;64715;44.760;37.678;2023-02-20T05:19:30;8.59;90.42
74923;HTU21D;64715;44.760;37.678;2023-02-20T05:20:31;8.61;90.18
74923;HTU21D;64715;44.760;37.678;2023-02-20T05:21:50;8.61;90.30
74923;HTU21D;64715;44.760;37.678;2023-02-20T05:23:10;8.59;90.15
74923;HTU21D;64715;44.760;37.678;2023-02-20T05:24:11;8.60;90.40
74923;HTU21D;64715;44.760;37.678;2023-02-20T05:25:13;8.61;90.37
74923;HTU21D;64715;44.760;37.678;2023-02-20T05:26:20;8.61;90.62
74923;HTU21D;64715;44.760;37.678;2023-02-20T05:27:23;8.61;90.31
74923;HTU21D;64715;44.760;37.678;2023-02-20T05:28:24;8.63;90.48
74923;HTU21D;64715;44.760;37.678;2023-02-20T05:29:25;8.64;90.55
74923;HTU21D;64715;44.760;37.678;2023-02-20T05:30:26;8.65;90.22
74923;HTU21D;64715;44.760;37.678;2023-02-20T05:31:27;8.65;90.34
74923;HTU21D;64715;44.760;37.678;2023-02-20T05:32:29;8.65;90.46
74923;HTU21D;64715;44.760;37.678;2023-02-20T05:33:30;8.70;90.36
74923;HTU21D;64715;44.760;37.678;2023-02-20T05:34:32;8.68;90.62
74923;HTU21D;64715;44.760;37.678;2023-02-20T05:35:34;8.68;90.69
74923;HTU21D;64715;44.760;37.678;2023-02-20T05:36:39;8.70;90.84
74923;HTU21D;64715;44.760;37.678;2023-02-20T05:37:40;8.71;90.83
74923;HTU21D;64715;44.760;37.678;2023-02-20T05:38:41;8.73;90.92
74923;HTU21D;64715;44.760;37.678;2023-02-20T05:39:47;8.72;90.67
74923;HTU21D;64715;44.760;37.678;2023-02-20T05:40:48;8.74;90.71
74923;HTU21D;64715;44.760;37.678;2023-02-20T05:41:49;8.73;90.67
74923;HTU21D;64715;44.760;37.678;2023-02-20T05:42:50;8.75;90.92
74923;HTU21D;64715;44.760;37.678;2023-02-20T05:43:51;8.76;90.67
74923;HTU21D;64715;44.760;37.678;2023-02-20T05:44:57;8.77;90.83
74923;HTU21D;64715;44.760;37.678;2023-02-20T05:45:58;8.78;90.73
74923;HTU21D;64715;44.760;37.678;2023-02-20T05:46:59;8.79;90.66
74923;HTU21D;64715;44.760;37.678;2023-02-20T05:48:00;8.80;90.94
74923;HTU21D;64715;44.760;37.678;2023-02-20T05:49:01;8.80;91.10
74923;HTU21D;64715;44.760;37.678;2023-02-20T05:50:03;8.81;90.90
74923;HTU21D;64715;44.760;37.678;2023-02-20T05:51:04;8.82;90.79
74923;HTU21D;64715;44.760;37.678;2023-02-20T05:52:05;8.82;91.11
74923;HTU21D;64715;44.760;37.678;2023-02-20T05:53:12;8.85;91.39
74923;HTU21D;64715;44.760;37.678;2023-02-20T05:54:13;8.86;91.08
74923;HTU21D;64715;44.760;37.678;2023-02-20T05:55:13;8.87;90.77
74923;HTU21D;64715;44.760;37.678;2023-02-20T05:56:15;8.86;91.19
74923;HTU21D;64715;44.760;37.678;2023-02-20T05:57:16;8.87;91.18
74923;HTU21D;64715;44.760;37.678;2023-02-20T05:58:17;8.89;91.15
74923;HTU21D;64715;44.760;37.678;2023-02-20T05:59:20;8.90;91.08
74923;HTU21D;64715;44.760;37.678;2023-02-20T06:00:22;8.89;91.34
74923;HTU21D;64715;44.760;37.678;2023-02-20T06:01:28;8.92;91.32
74923;HTU21D;64715;44.760;37.678;2023-02-20T06:02:32;8.93;91.14
74923;HTU21D;64715;44.760;37.678;2023-02-20T06:03:33;8.92;91.15
74923;HTU21D;64715;44.760;37.678;2023-02-20T06:04:35;8.94;91.33
74923;HTU21D;64715;44.760;37.678;2023-02-20T06:05:36;8.93;91.42
74923;HTU21D;64715;44.760;37.678;2023-02-20T06:06:40;8.95;91.24
74923;HTU21D;64715;44.760;37.678;2023-02-20T06:07:45;8.95;91.33
74923;HTU21D;64715;44.760;37.678;2023-02-20T06:08:46;8.95;91.20
74923;HTU21D;64715;44.760;37.678;2023-02-20T06:09:48;8.97;91.37
74923;HTU21D;64715;44.760;37.678;2023-02-20T06:10:49;8.96;91.37
74923;HTU21D;64715;44.760;37.678;2023-02-20T06:11:52;9.00;91.34
74923;HTU21D;64715;44.760;37.678;2023-02-20T06:12:54;8.98;91.27
74923;HTU21D;64715;44.760;37.678;2023-02-20T06:13:55;9.00;91.33
74923;HTU21D;64715;44.760;37.678;2023-02-20T06:14:56;9.02;91.34
74923;HTU21D;64715;44.760;37.678;2023-02-20T06:15:57;9.04;91.35
74923;HTU21D;64715;44.760;37.678;2023-02-20T06:16:58;9.04;91.37
74923;HTU21D;64715;44.760;37.678;2023-02-20T06:17:59;9.07;91.35
74923;HTU21D;64715;44.760;37.678;2023-02-20T06:19:01;9.08;91.30
74923;HTU21D;64715;44.760;37.678;2023-02-20T06:20:02;9.11;91.47
74923;HTU21D;64715;44.760;37.678;2023-02-20T06:21:06;9.14;91.47
74923;HTU21D;64715;44.760;37.678;2023-02-20T06:22:08;9.15;91.74
74923;HTU21D;64715;44.760;37.678;2023-02-20T06:23:09;9.17;91.15
74923;HTU21D;64715;44.760;37.678;2023-02-20T06:24:10;9.17;91.72
74923;HTU21D;64715;44.760;37.678;2023-02-20T06:25:11;9.19;91.38
74923;HTU21D;64715;44.760;37.678;2023-02-20T06:26:13;9.20;91.52
74923;HTU21D;64715;44.760;37.678;2023-02-20T06:27:16;9.21;91.42
74923;HTU21D;64715;44.760;37.678;2023-02-20T06:28:17;9.23;91.30
74923;HTU21D;64715;44.760;37.678;2023-02-20T06:29:18;9.22;91.31
74923;HTU21D;64715;44.760;37.678;2023-02-20T06:30:20;9.23;91.51
74923;HTU21D;64715;44.760;37.678;2023-02-20T06:31:26;9.25;91.17
74923;HTU21D;64715;44.760;37.678;2023-02-20T06:32:27;9.24;91.21
74923;HTU21D;64715;44.760;37.678;2023-02-20T06:33:29;9.25;91.24
74923;HTU21D;64715;44.760;37.678;2023-02-20T06:34:30;9.27;91.28
74923;HTU21D;64715;44.760;37.678;2023-02-20T06:35:32;9.27;91.19
74923;HTU21D;64715;44.760;37.678;2023-02-20T06:36:35;9.29;90.82
74923;HTU21D;64715;44.760;37.678;2023-02-20T06:37:37;9.30;90.92
74923;HTU21D;64715;44.760;37.678;2023-02-20T06:38:37;9.29;90.88
74923;HTU21D;64715;44.760;37.678;2023-02-20T06:39:39;9.29;91.04
74923;HTU21D;64715;44.760;37.678;2023-02-20T06:40:42;9.29;91.03
74923;HTU21D;64715;44.760;37.678;2023-02-20T06:41:44;9.30;91.00
74923;HTU21D;64715;44.760;37.678;2023-02-20T06:42:45;9.29;90.89
74923;HTU21D;64715;44.760;37.678;2023-02-20T06:43:46;9.31;90.88
74923;HTU21D;64715;44.760;37.678;2023-02-20T06:44:47;9.30;90.60
74923;HTU21D;64715;44.760;37.678;2023-02-20T06:45:48;9.29;90.40
74923;HTU21D;64715;44.760;37.678;2023-02-20T06:46:49;9.29;90.65
74923;HTU21D;64715;44.760;37.678;2023-02-20T06:47:50;9.29;90.91
74923;HTU21D;64715;44.760;37.678;2023-02-20T06:48:55;9.27;90.73
74923;HTU21D;64715;44.760;37.678;2023-02-20T06:49:57;9.26;90.72
74923;HTU21D;64715;44.760;37.678;2023-02-20T06:50:58;9.26;90.95
74923;HTU21D;64715;44.760;37.678;2023-02-20T06:51:59;9.29;90.62
74923;HTU21D;64715;44.760;37.678;2023-02-20T06:53:00;9.30;90.62
74923;HTU21D;64715;44.760;37.678;2023-02-20T06:54:02;9.29;90.83
74923;HTU21D;64715;44.760;37.678;2023-02-20T06:55:03;9.27;90.41
74923;HTU21D;64715;44.760;37.678;2023-02-20T06:56:09;9.30;91.04
74923;HTU21D;64715;44.760;37.678;2023-02-20T06:57:14;9.31;90.59
74923;HTU21D;64715;44.760;37.678;2023-02-20T06:58:15;9.29;90.64
74923;HTU21D;64715;44.760;37.678;2023-02-20T06:59:16;9.32;90.53
74923;HTU21D;64715;44.760;37.678;2023-02-20T07:00:17;9.32;90.68
74923;HTU21D;64715;44.760;37.678;2023-02-20T07:01:21;9.34;90.72
74923;HTU21D;64715;44.760;37.678;2023-02-20T07:02:23;9.32;90.67
74923;HTU21D;64715;44.760;37.678;2023-02-20T07:03:24;9.33;90.69
74923;HTU21D;64715;44.760;37.678;2023-02-20T07:04:25;9.34;90.69
74923;HTU21D;64715;44.760;37.678;2023-02-20T07:05:26;9.34;90.65
74923;HTU21D;64715;44.760;37.678;2023-02-20T07:06:29;9.35;90.39
74923;HTU21D;64715;44.760;37.678;2023-02-20T07:07:30;9.34;90.90
74923;HTU21D;64715;44.760;37.678;2023-02-20T07:08:32;9.33;90.70
74923;HTU21D;64715;44.760;37.678;2023-02-20T07:09:33;9.34;90.59